Time;durP1;ratioP1;P1;durP2;ratioP2;P2;SDS_P1;SDS_P2;PMS_P1;PMS_P2;Temp;Humidity;BMP_temperature;BMP_pressure;BME280_temperature;BME280_humidity;BME280_pressure;Samples;Min_cycle;Max_cycle;Signal;HPM_P1;HPM_P2
2023/04/14 00:01:16;;;;;;;9.68;3.90;;;;;;;7.55;77.31;99294.81;30732913;28;97293;-67
2023/04/14 00:16:16;;;;;;;7.40;4.97;;;;;;;7.57;76.80;99276.06;30729713;28;97242;-67
2023/04/14 00:31:17;;;;;;;7.82;4.93;;;;;;;7.54;77.24;99265.81;30730608;28;96714;-67
2023/04/14 00:46:17;;;;;;;7.72;3.65;;;;;;;7.52;76.94;99268.66;30739340;28;114224;-67
2023/04/14 01:01:19;;;;;;;8.20;3.65;;;;;;;7.49;77.11;99252.25;30748269;28;97977;-67
2023/04/14 01:16:29;;;;;;;5.80;3.63;;;;;;;7.49;77.54;99265.50;30747669;28;97454;-67
2023/04/14 01:32:10;;;;;;;8.53;4.40;;;;;;;7.49;77.72;99276.13;30746593;28;97538;-67
2023/04/14 01:47:14;;;;;;;8.60;4.23;;;;;;;7.45;77.13;99257.09;30640241;28;96867;-67
2023/04/14 02:02:16;;;;;;;8.00;3.83;;;;;;;7.48;77.46;99245.31;30741359;28;96811;-67
2023/04/14 02:17:19;;;;;;;5.97;3.83;;;;;;;7.41;77.87;99238.06;30741287;28;96613;-67
2023/04/14 02:32:27;;;;;;;8.00;4.20;;;;;;;7.38;77.51;99238.41;30740473;28;97438;-67
2023/04/14 02:47:33;;;;;;;8.53;5.20;;;;;;;7.40;78.11;99223.16;30738917;28;97000;-67
2023/04/14 03:02:35;;;;;;;11.13;6.70;;;;;;;7.37;78.16;99222.69;30736150;28;97399;-67
2023/04/14 03:17:36;;;;;;;10.63;5.73;;;;;;;7.36;77.77;99229.81;30735032;28;96671;-67
2023/04/14 03:32:40;;;;;;;12.23;6.37;;;;;;;7.37;77.93;99197.00;30733263;28;97356;-67
2023/04/14 03:47:40;;;;;;;10.97;6.90;;;;;;;7.35;78.48;99201.66;30730769;28;96674;-67
2023/04/14 04:02:42;;;;;;;15.05;7.43;;;;;;;7.36;78.29;99197.19;30729204;28;96784;-67
2023/04/14 04:17:44;;;;;;;15.80;8.77;;;;;;;7.36;78.46;99192.72;30734231;28;96614;-66
2023/04/14 04:32:44;;;;;;;20.27;11.37;;;;;;;7.41;78.04;99182.41;30748014;28;96585;-66
2023/04/14 04:47:44;;;;;;;19.50;10.80;;;;;;;7.36;78.26;99190.06;30746177;28;96647;-66
2023/04/14 05:02:45;;;;;;;23.08;13.52;;;;;;;7.36;78.73;99171.50;30744571;28;97193;-66
2023/04/14 05:17:46;;;;;;;27.65;13.73;;;;;;;7.39;79.06;99179.09;30742356;28;96582;-65
2023/04/14 05:32:46;;;;;;;21.08;13.10;;;;;;;7.50;78.88;99179.72;30741930;28;97287;-67
2023/04/14 05:47:46;;;;;;;23.75;12.55;;;;;;;7.66;78.71;99179.63;30739872;28;96641;-65
2023/04/14 06:02:47;;;;;;;25.75;13.35;;;;;;;7.70;78.69;99164.19;30738683;28;109971;-65
2023/04/14 06:17:47;;;;;;;27.05;14.05;;;;;;;7.91;79.37;99147.59;30737204;28;96951;-65
2023/04/14 06:32:52;;;;;;;25.77;14.40;;;;;;;8.35;78.75;99116.84;30736394;28;97677;-67
2023/04/14 06:47:54;;;;;;;22.67;13.37;;;;;;;8.83;78.52;99105.88;30732650;28;96657;-66
2023/04/14 07:02:55;;;;;;;23.10;14.37;;;;;;;9.11;77.92;99095.38;30724248;28;96948;-66
2023/04/14 07:17:55;;;;;;;24.48;14.70;;;;;;;9.20;77.38;99099.59;30729960;28;111589;-64
2023/04/14 07:32:56;;;;;;;24.23;14.68;;;;;;;9.25;77.42;99088.38;30729407;28;96927;-66
2023/04/14 07:47:57;;;;;;;20.65;13.07;;;;;;;9.17;77.13;99091.97;30730443;28;97784;-65
2023/04/14 08:02:57;;;;;;;21.90;13.88;;;;;;;9.24;76.51;99086.72;30720229;28;96687;-66
2023/04/14 08:17:58;;;;;;;22.90;13.85;;;;;;;9.43;76.96;99107.38;30629338;28;96993;-65
2023/04/14 08:32:58;;;;;;;22.98;13.50;;;;;;;9.54;76.75;99089.28;30668179;28;96830;-65
2023/04/14 08:48:01;;;;;;;26.88;16.42;;;;;;;9.78;76.34;99080.06;30699011;28;97213;-66
2023/04/14 09:03:01;;;;;;;27.87;16.70;;;;;;;9.94;76.20;99089.63;30630399;28;96769;-66
2023/04/14 09:18:01;;;;;;;30.85;17.15;;;;;;;10.28;75.44;99088.03;30620138;28;97249;-67
2023/04/14 09:33:05;;;;;;;27.10;16.27;;;;;;;10.87;75.36;99062.72;30672054;28;96823;-66
2023/04/14 09:48:06;;;;;;;33.33;18.73;;;;;;;11.30;74.54;99058.91;30684727;28;96817;-66
2023/04/14 10:03:06;;;;;;;32.30;19.33;;;;;;;12.01;72.60;99066.38;30684080;28;97624;-66
2023/04/14 10:18:07;;;;;;;32.63;20.90;;;;;;;12.25;72.29;99055.25;30728344;28;111807;-66
2023/04/14 10:33:08;;;;;;;31.73;20.48;;;;;;;12.39;71.86;99050.69;30730213;28;97156;-67
2023/04/14 10:48:10;;;;;;;38.27;23.73;;;;;;;12.65;71.11;99034.53;30726914;28;97261;-66
2023/04/14 11:03:13;;;;;;;40.13;24.23;;;;;;;13.43;70.22;99024.66;30725413;28;97285;-68
2023/04/14 11:18:25;;;;;;;42.97;24.87;;;;;;;13.90;69.29;99002.03;30723266;28;96842;-66
2023/04/14 11:33:30;;;;;;;37.20;23.20;;;;;;;14.03;68.14;98996.56;30720378;28;96782;-66
2023/04/14 11:48:31;;;;;;;45.27;24.17;;;;;;;14.29;67.13;98978.56;30720142;28;96830;-66
2023/04/14 12:03:33;;;;;;;40.85;26.20;;;;;;;14.40;66.50;98956.34;30719930;28;96690;-66
2023/04/14 12:18:33;;;;;;;40.57;26.77;;;;;;;14.87;65.64;98932.47;30717016;28;97327;-65
2023/04/14 12:33:34;;;;;;;42.78;26.30;;;;;;;14.69;64.97;98916.41;30606023;28;96875;-64
2023/04/14 12:48:43;;;;;;;43.88;26.98;;;;;;;14.14;65.15;98899.41;30607154;28;97230;-66
2023/04/14 13:03:54;;;;;;;38.47;26.27;;;;;;;13.88;65.98;98871.09;30613257;28;97145;-65
2023/04/14 13:18:54;;;;;;;40.00;27.10;;;;;;;13.79;66.58;98867.91;30613983;28;97129;-65
2023/04/14 13:33:55;;;;;;;40.85;26.98;;;;;;;14.10;66.94;98847.31;30621008;28;96619;-64
2023/04/14 13:48:55;;;;;;;42.00;27.17;;;;;;;14.09;66.50;98832.31;30617979;28;97259;-63
2023/04/14 14:03:55;;;;;;;46.80;26.95;;;;;;;14.32;66.46;98812.00;30619505;28;96697;-67
2023/04/14 14:18:56;;;;;;;37.97;26.92;;;;;;;14.27;66.66;98807.34;30617486;28;96692;-66
2023/04/14 14:33:56;;;;;;;39.10;25.88;;;;;;;14.28;66.42;98808.16;30614812;28;96601;-64
2023/04/14 14:48:56;;;;;;;41.50;25.65;;;;;;;13.78;67.22;98801.19;30613284;28;96642;-64
2023/04/14 15:03:57;;;;;;;40.47;28.15;;;;;;;13.33;68.17;98797.78;30611196;28;97489;-65
2023/04/14 15:18:57;;;;;;;36.47;26.15;;;;;;;13.04;68.63;98815.38;30610317;28;96795;-66
2023/04/14 15:34:00;;;;;;;37.92;26.40;;;;;;;12.91;68.78;98807.47;30606638;28;107118;-69
2023/04/14 15:49:01;;;;;;;40.73;26.93;;;;;;;12.68;69.63;98808.88;30603294;28;96863;-67
2023/04/14 16:04:01;;;;;;;40.55;28.63;;;;;;;12.32;70.01;98821.06;30608219;28;100682;-67
2023/04/14 16:19:02;;;;;;;46.50;31.00;;;;;;;11.94;70.79;98806.66;30619325;28;96754;-67
2023/04/14 16:34:02;;;;;;;49.72;32.40;;;;;;;11.45;72.17;98830.22;30625382;28;97379;-65
2023/04/14 16:49:03;;;;;;;53.63;33.83;;;;;;;10.93;72.93;98839.94;30651934;28;97016;-65
2023/04/14 17:04:03;;;;;;;56.58;35.00;;;;;;;10.78;74.07;98846.28;30717131;28;97296;-64
2023/04/14 17:19:03;;;;;;;58.00;32.83;;;;;;;10.62;74.51;98836.88;30743959;28;97132;-62
2023/04/14 17:34:09;;;;;;;52.42;35.00;;;;;;;10.39;75.19;98845.22;30741301;28;96879;-64
2023/04/14 17:49:09;;;;;;;52.70;33.23;;;;;;;10.24;76.15;98834.72;30731923;28;97348;-63
2023/04/14 18:04:10;;;;;;;57.72;33.58;;;;;;;10.10;76.23;98835.69;30738591;28;109934;-62
2023/04/14 18:19:10;;;;;;;57.45;36.03;;;;;;;10.03;76.59;98848.16;30738295;28;97210;-65
2023/04/14 18:34:12;;;;;;;59.45;35.40;;;;;;;9.76;77.04;98894.09;30735590;28;106417;-64
2023/04/14 18:49:13;;;;;;;58.37;37.20;;;;;;;9.66;77.38;98898.94;30734796;28;97358;-65
2023/04/14 19:04:13;;;;;;;56.10;33.47;;;;;;;9.62;78.50;98895.88;30707196;28;96688;-64
2023/04/14 19:19:13;;;;;;;66.75;38.20;;;;;;;9.53;78.72;98910.34;30602310;28;112558;-64
2023/04/14 19:34:14;;;;;;;65.32;40.80;;;;;;;9.45;79.23;98895.34;30610964;28;104502;-63
2023/04/14 19:49:14;;;;;;;63.03;36.60;;;;;;;9.57;79.39;98886.84;30625750;28;96951;-65
2023/04/14 20:04:15;;;;;;;57.65;35.97;;;;;;;9.59;79.22;98884.78;30728843;28;96704;-64
2023/04/14 20:19:15;;;;;;;61.45;38.25;;;;;;;9.64;79.38;98875.22;30727093;28;111580;-64
2023/04/14 20:34:16;;;;;;;69.72;38.85;;;;;;;9.63;79.65;98872.75;30726649;28;96640;-64
2023/04/14 20:49:17;;;;;;;65.30;38.27;;;;;;;9.65;79.63;98868.06;30726928;28;97425;-65
2023/04/14 21:04:17;;;;;;;63.85;37.55;;;;;;;9.70;79.70;98859.50;30737859;28;96634;-63
2023/04/14 21:19:18;;;;;;;63.13;36.05;;;;;;;9.71;80.10;98869.94;30745661;28;100172;-64
2023/04/14 21:34:18;;;;;;;62.47;38.65;;;;;;;9.72;80.27;98860.94;30743765;28;96619;-64
2023/04/14 21:49:19;;;;;;;55.90;35.63;;;;;;;9.70;80.55;98860.31;30742177;28;97195;-66
2023/04/14 22:04:21;;;;;;;67.47;38.60;;;;;;;9.75;80.57;98857.88;30743578;28;97211;-65
2023/04/14 22:19:22;;;;;;;61.70;35.47;;;;;;;9.75;80.26;98854.41;30741944;28;96679;-65
2023/04/14 22:34:22;;;;;;;62.60;35.95;;;;;;;9.76;80.95;98846.22;30716680;28;97022;-65
2023/04/14 22:49:22;;;;;;;52.17;32.58;;;;;;;9.79;80.97;98845.81;30635440;28;113483;-65
2023/04/14 23:04:24;;;;;;;55.33;33.22;;;;;;;9.83;81.39;98847.06;30617077;28;98016;-68
2023/04/14 23:19:25;;;;;;;51.83;31.30;;;;;;;9.89;81.41;98828.69;30614490;28;97003;-66
2023/04/14 23:34:25;;;;;;;48.00;29.38;;;;;;;9.82;81.06;98832.13;30614225;28;97690;-65
2023/04/14 23:49:26;;;;;;;30.33;17.80;;;;;;;9.79;81.28;98829.88;30613140;28;96754;-65
